sensor_id;sensor_type;location;lat;lon;timestamp;pressure;altitude;pressure_sealevel;temperature;humidity
19210;BME280;9738;51.654;14.238;2023-04-19T00:01:52;101422.69;;;7.73;100.00
19210;BME280;9738;51.654;14.238;2023-04-19T00:04:18;101416.72;;;7.69;100.00
19210;BME280;9738;51.654;14.238;2023-04-19T00:06:45;101420.47;;;7.67;100.00
19210;BME280;9738;51.654;14.238;2023-04-19T00:09:12;101416.13;;;7.66;100.00
19210;BME280;9738;51.654;14.238;2023-04-19T00:11:38;101417.09;;;7.65;100.00
19210;BME280;9738;51.654;14.238;2023-04-19T00:14:04;101415.38;;;7.64;100.00
19210;BME280;9738;51.654;14.238;2023-04-19T00:16:30;101412.72;;;7.64;100.00
19210;BME280;9738;51.654;14.238;2023-04-19T00:18:56;101403.78;;;7.65;100.00
19210;BME280;9738;51.654;14.238;2023-04-19T00:21:22;101401.97;;;7.65;100.00
19210;BME280;9738;51.654;14.238;2023-04-19T00:23:48;101395.28;;;7.59;100.00
19210;BME280;9738;51.654;14.238;2023-04-19T00:26:14;101391.66;;;7.61;100.00
19210;BME280;9738;51.654;14.238;2023-04-19T00:28:42;101395.28;;;7.59;100.00
19210;BME280;9738;51.654;14.238;2023-04-19T00:31:09;101385.50;;;7.60;100.00
19210;BME280;9738;51.654;14.238;2023-04-19T00:33:34;101390.94;;;7.58;100.00
19210;BME280;9738;51.654;14.238;2023-04-19T00:36:00;101396.25;;;7.58;100.00
19210;BME280;9738;51.654;14.238;2023-04-19T00:38:26;101391.88;;;7.57;100.00
19210;BME280;9738;51.654;14.238;2023-04-19T00:40:52;101393.59;;;7.58;100.00
19210;BME280;9738;51.654;14.238;2023-04-19T00:43:18;101389.97;;;7.59;100.00
19210;BME280;9738;51.654;14.238;2023-04-19T00:45:45;101391.88;;;7.57;100.00
19210;BME280;9738;51.654;14.238;2023-04-19T00:48:13;101385.69;;;7.57;100.00
19210;BME280;9738;51.654;14.238;2023-04-19T00:50:40;101384.75;;;7.58;100.00
19210;BME280;9738;51.654;14.238;2023-04-19T00:53:07;101380.59;;;7.54;100.00
19210;BME280;9738;51.654;14.238;2023-04-19T00:55:33;101372.94;;;7.49;100.00
19210;BME280;9738;51.654;14.238;2023-04-19T00:57:59;101374.88;;;7.47;100.00
19210;BME280;9738;51.654;14.238;2023-04-19T01:00:26;101366.16;;;7.45;100.00
19210;BME280;9738;51.654;14.238;2023-04-19T01:02:51;101368.91;;;7.44;100.00
19210;BME280;9738;51.654;14.238;2023-04-19T01:05:18;101371.69;;;7.42;100.00
19210;BME280;9738;51.654;14.238;2023-04-19T01:07:44;101358.94;;;7.35;100.00
19210;BME280;9738;51.654;14.238;2023-04-19T01:10:10;101360.09;;;7.30;100.00
19210;BME280;9738;51.654;14.238;2023-04-19T01:12:36;101356.31;;;7.22;100.00
19210;BME280;9738;51.654;14.238;2023-04-19T01:15:02;101353.00;;;7.18;100.00
19210;BME280;9738;51.654;14.238;2023-04-19T01:17:30;101355.66;;;7.18;100.00
19210;BME280;9738;51.654;14.238;2023-04-19T01:20:00;101355.66;;;7.18;100.00
19210;BME280;9738;51.654;14.238;2023-04-19T01:22:28;101356.00;;;7.14;100.00
19210;BME280;9738;51.654;14.238;2023-04-19T01:24:55;101358.13;;;7.09;100.00
19210;BME280;9738;51.654;14.238;2023-04-19T01:27:20;101358.31;;;7.05;100.00
19210;BME280;9738;51.654;14.238;2023-04-19T01:29:47;101354.81;;;7.05;100.00
19210;BME280;9738;51.654;14.238;2023-04-19T01:32:12;101353.22;;;7.02;100.00
19210;BME280;9738;51.654;14.238;2023-04-19T01:34:38;101355.16;;;7.00;100.00
19210;BME280;9738;51.654;14.238;2023-04-19T01:37:05;101353.22;;;7.02;100.00
19210;BME280;9738;51.654;14.238;2023-04-19T01:39:31;101347.38;;;6.97;100.00
19210;BME280;9738;51.654;14.238;2023-04-19T01:41:57;101351.94;;;6.95;100.00
19210;BME280;9738;51.654;14.238;2023-04-19T01:44:23;101353.84;;;6.93;100.00
19210;BME280;9738;51.654;14.238;2023-04-19T01:46:49;101343.31;;;6.92;100.00
19210;BME280;9738;51.654;14.238;2023-04-19T01:49:15;101344.94;;;6.94;100.00
19210;BME280;9738;51.654;14.238;2023-04-19T01:51:42;101343.97;;;6.95;100.00
19210;BME280;9738;51.654;14.238;2023-04-19T01:54:07;101342.28;;;6.94;100.00
19210;BME280;9738;51.654;14.238;2023-04-19T01:56:33;101346.00;;;6.92;100.00
19210;BME280;9738;51.654;14.238;2023-04-19T01:58:59;101338.97;;;6.91;100.00
19210;BME280;9738;51.654;14.238;2023-04-19T02:01:25;101332.94;;;6.89;100.00
19210;BME280;9738;51.654;14.238;2023-04-19T02:03:51;101332.28;;;6.85;100.00
19210;BME280;9738;51.654;14.238;2023-04-19T02:06:17;101333.91;;;6.88;100.00
19210;BME280;9738;51.654;14.238;2023-04-19T02:08:43;101338.56;;;6.84;100.00
19210;BME280;9738;51.654;14.238;2023-04-19T02:11:10;101337.59;;;6.85;100.00
19210;BME280;9738;51.654;14.238;2023-04-19T02:13:37;101333.34;;;6.83;100.00
19210;BME280;9738;51.654;14.238;2023-04-19T02:16:02;101328.16;;;6.81;100.00
19210;BME280;9738;51.654;14.238;2023-04-19T02:18:28;101332.81;;;6.77;100.00
19210;BME280;9738;51.654;14.238;2023-04-19T02:20:55;101332.16;;;6.74;100.00
19210;BME280;9738;51.654;14.238;2023-04-19T02:23:21;101331.44;;;6.72;100.00
19210;BME280;9738;51.654;14.238;2023-04-19T02:25:46;101325.16;;;6.73;100.00
19210;BME280;9738;51.654;14.238;2023-04-19T02:28:13;101324.72;;;6.66;100.00
19210;BME280;9738;51.654;14.238;2023-04-19T02:30:38;101327.50;;;6.65;100.00
19210;BME280;9738;51.654;14.238;2023-04-19T02:33:04;101328.56;;;6.62;100.00
19210;BME280;9738;51.654;14.238;2023-04-19T02:35:31;101323.75;;;6.55;100.00
19210;BME280;9738;51.654;14.238;2023-04-19T02:37:57;101325.88;;;6.49;100.00
19210;BME280;9738;51.654;14.238;2023-04-19T02:40:23;101317.09;;;6.49;100.00
19210;BME280;9738;51.654;14.238;2023-04-19T02:42:51;101311.78;;;6.49;100.00
19210;BME280;9738;51.654;14.238;2023-04-19T02:45:17;101310.47;;;6.42;100.00
19210;BME280;9738;51.654;14.238;2023-04-19T02:47:42;101312.59;;;6.37;100.00
19210;BME280;9738;51.654;14.238;2023-04-19T02:50:12;101308.03;;;6.39;100.00
19210;BME280;9738;51.654;14.238;2023-04-19T02:52:37;101312.59;;;6.37;100.00
19210;BME280;9738;51.654;14.238;2023-04-19T02:55:04;101306.63;;;6.33;100.00
19210;BME280;9738;51.654;14.238;2023-04-19T02:57:31;101306.31;;;6.25;100.00
19210;BME280;9738;51.654;14.238;2023-04-19T02:59:57;101302.53;;;6.15;100.00
19210;BME280;9738;51.654;14.238;2023-04-19T03:02:24;101306.16;;;6.14;100.00
19210;BME280;9738;51.654;14.238;2023-04-19T03:04:50;101311.88;;;6.08;100.00
19210;BME280;9738;51.654;14.238;2023-04-19T03:07:17;101313.00;;;6.04;100.00
19210;BME280;9738;51.654;14.238;2023-04-19T03:09:43;101311.63;;;5.98;100.00
19210;BME280;9738;51.654;14.238;2023-04-19T03:12:09;101304.53;;;5.84;100.00
19210;BME280;9738;51.654;14.238;2023-04-19T03:14:35;101297.81;;;5.79;100.00
19210;BME280;9738;51.654;14.238;2023-04-19T03:17:01;101311.69;;;5.69;100.00
19210;BME280;9738;51.654;14.238;2023-04-19T03:19:28;101300.41;;;5.66;100.00
19210;BME280;9738;51.654;14.238;2023-04-19T03:21:54;101309.81;;;5.57;100.00
19210;BME280;9738;51.654;14.238;2023-04-19T03:24:26;101305.56;;;5.55;100.00
19210;BME280;9738;51.654;14.238;2023-04-19T03:26:52;101307.66;;;5.50;100.00
19210;BME280;9738;51.654;14.238;2023-04-19T03:29:18;101305.38;;;5.43;100.00
19210;BME280;9738;51.654;14.238;2023-04-19T03:31:43;101304.06;;;5.36;100.00
19210;BME280;9738;51.654;14.238;2023-04-19T03:34:10;101301.72;;;5.32;100.00
19210;BME280;9738;51.654;14.238;2023-04-19T03:36:36;101308.06;;;5.29;100.00
19210;BME280;9738;51.654;14.238;2023-04-19T03:39:02;101303.16;;;5.23;100.00
19210;BME280;9738;51.654;14.238;2023-04-19T03:41:29;101291.13;;;5.18;100.00
19210;BME280;9738;51.654;14.238;2023-04-19T03:43:54;101295.00;;;5.12;100.00
19210;BME280;9738;51.654;14.238;2023-04-19T03:46:20;101297.09;;;5.07;100.00
19210;BME280;9738;51.654;14.238;2023-04-19T03:48:46;101305.31;;;5.02;100.00
19210;BME280;9738;51.654;14.238;2023-04-19T03:51:12;101295.19;;;4.95;100.00
19210;BME280;9738;51.654;14.238;2023-04-19T03:53:39;101299.38;;;4.84;100.00
19210;BME280;9738;51.654;14.238;2023-04-19T03:56:05;101303.97;;;4.81;100.00
19210;BME280;9738;51.654;14.238;2023-04-19T03:58:31;101302.94;;;4.69;100.00
19210;BME280;9738;51.654;14.238;2023-04-19T04:00:58;101307.56;;;4.66;100.00
19210;BME280;9738;51.654;14.238;2023-04-19T04:03:24;101299.91;;;4.61;100.00
19210;BME280;9738;51.654;14.238;2023-04-19T04:05:50;101312.91;;;4.50;100.00
19210;BME280;9738;51.654;14.238;2023-04-19T04:08:16;101306.97;;;4.46;100.00
19210;BME280;9738;51.654;14.238;2023-04-19T04:10:42;101307.22;;;4.42;100.00
19210;BME280;9738;51.654;14.238;2023-04-19T04:13:08;101310.22;;;4.36;100.00
19210;BME280;9738;51.654;14.238;2023-04-19T04:15:33;101306.84;;;4.33;100.00
19210;BME280;9738;51.654;14.238;2023-04-19T04:18:00;101306.75;;;4.35;100.00
19210;BME280;9738;51.654;14.238;2023-04-19T04:20:26;101308.69;;;4.31;100.00
19210;BME280;9738;51.654;14.238;2023-04-19T04:22:51;101307.94;;;4.29;100.00
19210;BME280;9738;51.654;14.238;2023-04-19T04:25:18;101316.91;;;4.27;100.00
19210;BME280;9738;51.654;14.238;2023-04-19T04:27:44;101313.50;;;4.25;100.00
19210;BME280;9738;51.654;14.238;2023-04-19T04:30:10;101308.56;;;4.19;100.00
19210;BME280;9738;51.654;14.238;2023-04-19T04:32:37;101308.41;;;4.22;100.00
19210;BME280;9738;51.654;14.238;2023-04-19T04:35:04;101322.81;;;4.16;100.00
19210;BME280;9738;51.654;14.238;2023-04-19T04:37:34;101314.50;;;4.08;100.00
19210;BME280;9738;51.654;14.238;2023-04-19T04:40:01;101316.34;;;4.06;100.00
19210;BME280;9738;51.654;14.238;2023-04-19T04:42:29;101310.41;;;4.02;100.00
19210;BME280;9738;51.654;14.238;2023-04-19T04:44:56;101311.50;;;3.98;100.00
19210;BME280;9738;51.654;14.238;2023-04-19T04:47:23;101308.88;;;3.98;100.00
19210;BME280;9738;51.654;14.238;2023-04-19T04:49:49;101317.75;;;3.97;100.00
19210;BME280;9738;51.654;14.238;2023-04-19T04:52:15;101302.13;;;3.93;100.00
19210;BME280;9738;51.654;14.238;2023-04-19T04:54:42;101311.25;;;3.87;100.00
19210;BME280;9738;51.654;14.238;2023-04-19T04:57:08;101314.00;;;3.86;100.00
19210;BME280;9738;51.654;14.238;2023-04-19T04:59:33;101307.84;;;3.85;100.00
19210;BME280;9738;51.654;14.238;2023-04-19T05:02:00;101311.53;;;3.83;100.00
19210;BME280;9738;51.654;14.238;2023-04-19T05:04:25;101305.47;;;3.80;100.00
19210;BME280;9738;51.654;14.238;2023-04-19T05:06:52;101296.59;;;3.82;100.00
19210;BME280;9738;51.654;14.238;2023-04-19T05:09:19;101304.47;;;3.83;100.00
19210;BME280;9738;51.654;14.238;2023-04-19T05:11:45;101301.13;;;3.79;100.00
19210;BME280;9738;51.654;14.238;2023-04-19T05:14:10;101288.50;;;3.85;100.00
19210;BME280;9738;51.654;14.238;2023-04-19T05:16:38;101310.25;;;3.90;100.00
19210;BME280;9738;51.654;14.238;2023-04-19T05:19:04;101301.19;;;3.94;100.00
19210;BME280;9738;51.654;14.238;2023-04-19T05:21:32;101304.44;;;3.99;100.00
19210;BME280;9738;51.654;14.238;2023-04-19T05:23:58;101309.38;;;4.05;100.00
19210;BME280;9738;51.654;14.238;2023-04-19T05:26:24;101294.84;;;4.12;100.00
19210;BME280;9738;51.654;14.238;2023-04-19T05:28:50;101288.19;;;4.21;100.00
19210;BME280;9738;51.654;14.238;2023-04-19T05:31:16;101289.06;;;4.36;100.00
19210;BME280;9738;51.654;14.238;2023-04-19T05:33:42;101283.31;;;4.43;100.00
19210;BME280;9738;51.654;14.238;2023-04-19T05:36:08;101281.38;;;4.47;100.00
19210;BME280;9738;51.654;14.238;2023-04-19T05:38:34;101281.84;;;4.53;100.00
19210;BME280;9738;51.654;14.238;2023-04-19T05:41:01;101276.47;;;4.69;100.00
19210;BME280;9738;51.654;14.238;2023-04-19T05:43:27;101267.03;;;4.79;100.00
19210;BME280;9738;51.654;14.238;2023-04-19T05:45:53;101276.75;;;4.93;100.00
19210;BME280;9738;51.654;14.238;2023-04-19T05:48:19;101268.63;;;4.96;100.00
19210;BME280;9738;51.654;14.238;2023-04-19T05:50:45;101262.78;;;4.91;100.00
19210;BME280;9738;51.654;14.238;2023-04-19T05:53:11;101255.13;;;4.86;100.00
19210;BME280;9738;51.654;14.238;2023-04-19T05:55:37;101259.19;;;4.78;100.00
19210;BME280;9738;51.654;14.238;2023-04-19T05:58:02;101255.50;;;4.80;100.00
19210;BME280;9738;51.654;14.238;2023-04-19T06:00:29;101258.81;;;4.84;100.00
19210;BME280;9738;51.654;14.238;2023-04-19T06:02:54;101254.16;;;4.87;100.00
19210;BME280;9738;51.654;14.238;2023-04-19T06:05:20;101253.88;;;5.06;100.00
19210;BME280;9738;51.654;14.238;2023-04-19T06:07:46;101255.59;;;5.22;100.00
19210;BME280;9738;51.654;14.238;2023-04-19T06:10:14;101256.31;;;5.24;100.00
19210;BME280;9738;51.654;14.238;2023-04-19T06:12:39;101260.63;;;5.39;100.00
19210;BME280;9738;51.654;14.238;2023-04-19T06:15:06;101248.84;;;5.57;100.00
19210;BME280;9738;51.654;14.238;2023-04-19T06:17:32;101246.25;;;5.70;100.00
19210;BME280;9738;51.654;14.238;2023-04-19T06:19:57;101239.50;;;5.79;100.00
19210;BME280;9738;51.654;14.238;2023-04-19T06:22:24;101245.41;;;5.96;100.00
19210;BME280;9738;51.654;14.238;2023-04-19T06:24:50;101244.19;;;6.15;100.00
19210;BME280;9738;51.654;14.238;2023-04-19T06:27:15;101247.19;;;6.48;100.00
19210;BME280;9738;51.654;14.238;2023-04-19T06:29:42;101254.25;;;6.75;100.00
19210;BME280;9738;51.654;14.238;2023-04-19T06:32:08;101242.50;;;7.03;100.00
19210;BME280;9738;51.654;14.238;2023-04-19T06:34:34;101241.66;;;7.15;100.00
19210;BME280;9738;51.654;14.238;2023-04-19T06:37:00;101241.81;;;7.25;100.00
19210;BME280;9738;51.654;14.238;2023-04-19T06:39:26;101235.50;;;7.15;100.00
19210;BME280;9738;51.654;14.238;2023-04-19T06:41:52;101232.47;;;7.32;100.00
19210;BME280;9738;51.654;14.238;2023-04-19T06:44:18;101225.63;;;7.41;100.00
19210;BME280;9738;51.654;14.238;2023-04-19T06:46:44;101220.91;;;7.44;100.00
19210;BME280;9738;51.654;14.238;2023-04-19T06:49:09;101224.34;;;7.46;100.00
19210;BME280;9738;51.654;14.238;2023-04-19T06:51:37;101215.16;;;7.50;100.00
19210;BME280;9738;51.654;14.238;2023-04-19T06:54:03;101227.91;;;7.58;100.00
19210;BME280;9738;51.654;14.238;2023-04-19T06:56:38;101221.31;;;7.64;100.00
19210;BME280;9738;51.654;14.238;2023-04-19T06:59:06;101219.56;;;7.63;100.00
19210;BME280;9738;51.654;14.238;2023-04-19T07:01:31;101219.97;;;7.69;100.00
19210;BME280;9738;51.654;14.238;2023-04-19T07:03:57;101213.91;;;7.91;100.00
19210;BME280;9738;51.654;14.238;2023-04-19T07:06:23;101211.41;;;8.01;100.00
19210;BME280;9738;51.654;14.238;2023-04-19T07:08:49;101216.72;;;8.01;100.00
19210;BME280;9738;51.654;14.238;2023-04-19T07:11:15;101223.94;;;8.23;100.00
19210;BME280;9738;51.654;14.238;2023-04-19T07:13:41;101214.91;;;8.36;100.00
19210;BME280;9738;51.654;14.238;2023-04-19T07:16:07;101208.28;;;8.64;100.00
19210;BME280;9738;51.654;14.238;2023-04-19T07:18:32;101198.84;;;9.05;100.00
19210;BME280;9738;51.654;14.238;2023-04-19T07:20:59;101194.81;;;9.22;100.00
19210;BME280;9738;51.654;14.238;2023-04-19T07:23:24;101195.44;;;9.14;76.73
19210;BME280;9738;51.654;14.238;2023-04-19T07:25:50;101188.50;;;9.34;80.80
19210;BME280;9738;51.654;14.238;2023-04-19T07:28:16;101193.06;;;9.55;78.61
19210;BME280;9738;51.654;14.238;2023-04-19T07:30:42;101188.28;;;9.90;78.33
19210;BME280;9738;51.654;14.238;2023-04-19T07:33:10;101182.00;;;10.12;77.49
19210;BME280;9738;51.654;14.238;2023-04-19T07:35:39;101177.06;;;10.28;75.30
19210;BME280;9738;51.654;14.238;2023-04-19T07:38:05;101178.22;;;10.36;74.59
19210;BME280;9738;51.654;14.238;2023-04-19T07:40:31;101176.66;;;10.12;72.95
19210;BME280;9738;51.654;14.238;2023-04-19T07:42:57;101172.38;;;10.00;73.68
19210;BME280;9738;51.654;14.238;2023-04-19T07:45:23;101176.59;;;9.82;73.60
19210;BME280;9738;51.654;14.238;2023-04-19T07:47:49;101170.50;;;9.80;75.41
19210;BME280;9738;51.654;14.238;2023-04-19T07:50:15;101168.94;;;9.77;74.28
19210;BME280;9738;51.654;14.238;2023-04-19T07:52:41;101172.31;;;9.58;74.23
19210;BME280;9738;51.654;14.238;2023-04-19T07:55:07;101168.25;;;9.75;76.37
19210;BME280;9738;51.654;14.238;2023-04-19T07:57:34;101168.53;;;9.93;75.88
19210;BME280;9738;51.654;14.238;2023-04-19T07:59:59;101167.66;;;9.71;74.74
19210;BME280;9738;51.654;14.238;2023-04-19T08:02:26;101163.22;;;9.61;75.29
19210;BME280;9738;51.654;14.238;2023-04-19T08:04:53;101163.75;;;9.75;74.70
19210;BME280;9738;51.654;14.238;2023-04-19T08:07:19;101164.41;;;10.10;76.33
19210;BME280;9738;51.654;14.238;2023-04-19T08:09:44;101161.22;;;9.95;74.37
19210;BME280;9738;51.654;14.238;2023-04-19T08:12:11;101159.41;;;9.95;75.62
19210;BME280;9738;51.654;14.238;2023-04-19T08:14:36;101167.38;;;10.27;77.78
19210;BME280;9738;51.654;14.238;2023-04-19T08:17:04;101170.25;;;10.66;74.00
19210;BME280;9738;51.654;14.238;2023-04-19T08:19:30;101155.88;;;10.98;74.15
19210;BME280;9738;51.654;14.238;2023-04-19T08:21:56;101164.28;;;10.93;70.93
19210;BME280;9738;51.654;14.238;2023-04-19T08:24:22;101160.63;;;10.54;72.15
19210;BME280;9738;51.654;14.238;2023-04-19T08:26:48;101156.22;;;10.01;73.32
19210;BME280;9738;51.654;14.238;2023-04-19T08:29:19;101164.84;;;9.73;75.82
19210;BME280;9738;51.654;14.238;2023-04-19T08:31:45;101168.16;;;9.65;76.89
19210;BME280;9738;51.654;14.238;2023-04-19T08:34:12;101160.56;;;9.82;77.56
19210;BME280;9738;51.654;14.238;2023-04-19T08:36:37;101152.31;;;9.85;77.19
19210;BME280;9738;51.654;14.238;2023-04-19T08:39:03;101156.94;;;9.83;77.17
19210;BME280;9738;51.654;14.238;2023-04-19T08:41:30;101157.91;;;9.82;76.20
19210;BME280;9738;51.654;14.238;2023-04-19T08:43:56;101152.41;;;9.62;76.85
19210;BME280;9738;51.654;14.238;2023-04-19T08:46:23;101157.53;;;9.54;78.67
19210;BME280;9738;51.654;14.238;2023-04-19T08:48:50;101154.50;;;9.47;79.78
19210;BME280;9738;51.654;14.238;2023-04-19T08:51:16;101147.66;;;9.34;79.03
19210;BME280;9738;51.654;14.238;2023-04-19T08:53:44;101144.16;;;9.22;78.95
19210;BME280;9738;51.654;14.238;2023-04-19T08:56:11;101140.16;;;9.28;81.64
19210;BME280;9738;51.654;14.238;2023-04-19T08:58:37;101145.56;;;9.48;79.79
19210;BME280;9738;51.654;14.238;2023-04-19T09:01:03;101140.16;;;9.60;78.84
19210;BME280;9738;51.654;14.238;2023-04-19T09:03:30;101135.63;;;9.92;77.86
19210;BME280;9738;51.654;14.238;2023-04-19T09:05:57;101142.63;;;10.25;76.27
19210;BME280;9738;51.654;14.238;2023-04-19T09:08:27;101131.28;;;10.33;76.46
19210;BME280;9738;51.654;14.238;2023-04-19T09:10:56;101124.28;;;10.32;74.53
19210;BME280;9738;51.654;14.238;2023-04-19T09:13:23;101124.03;;;10.45;73.97
19210;BME280;9738;51.654;14.238;2023-04-19T09:15:49;101127.50;;;10.66;74.22
19210;BME280;9738;51.654;14.238;2023-04-19T09:18:16;101116.63;;;10.98;74.58
19210;BME280;9738;51.654;14.238;2023-04-19T09:20:43;101123.25;;;11.04;72.19
19210;BME280;9738;51.654;14.238;2023-04-19T09:23:10;101117.25;;;11.21;70.70
19210;BME280;9738;51.654;14.238;2023-04-19T09:25:38;101118.34;;;11.09;70.51
19210;BME280;9738;51.654;14.238;2023-04-19T09:28:11;101125.53;;;11.08;71.03
19210;BME280;9738;51.654;14.238;2023-04-19T09:30:38;101109.94;;;11.33;71.48
19210;BME280;9738;51.654;14.238;2023-04-19T09:33:04;101104.56;;;11.43;71.58
19210;BME280;9738;51.654;14.238;2023-04-19T09:35:42;101097.41;;;11.82;70.14
19210;BME280;9738;51.654;14.238;2023-04-19T09:38:10;101101.75;;;11.93;67.79
19210;BME280;9738;51.654;14.238;2023-04-19T09:40:37;101101.44;;;11.96;67.44
19210;BME280;9738;51.654;14.238;2023-04-19T09:43:03;101098.03;;;12.13;67.37
19210;BME280;9738;51.654;14.238;2023-04-19T09:45:43;101091.25;;;12.18;67.11
19210;BME280;9738;51.654;14.238;2023-04-19T09:48:10;101098.03;;;12.13;63.63
19210;BME280;9738;51.654;14.238;2023-04-19T09:50:53;101100.59;;;12.05;65.52
19210;BME280;9738;51.654;14.238;2023-04-19T09:53:20;101086.84;;;11.90;64.19
19210;BME280;9738;51.654;14.238;2023-04-19T09:55:47;101092.19;;;11.71;65.98
19210;BME280;9738;51.654;14.238;2023-04-19T09:58:14;101090.50;;;11.50;66.06
19210;BME280;9738;51.654;14.238;2023-04-19T10:00:40;101086.72;;;11.33;69.07
19210;BME280;9738;51.654;14.238;2023-04-19T10:03:09;101090.22;;;11.34;69.06
19210;BME280;9738;51.654;14.238;2023-04-19T10:05:39;101098.63;;;11.10;65.80
19210;BME280;9738;51.654;14.238;2023-04-19T10:08:07;101088.50;;;10.94;68.15
19210;BME280;9738;51.654;14.238;2023-04-19T10:10:34;101091.97;;;10.85;66.67
19210;BME280;9738;51.654;14.238;2023-04-19T10:13:02;101079.84;;;10.71;67.62
19210;BME280;9738;51.654;14.238;2023-04-19T10:15:29;101092.44;;;10.50;68.94
19210;BME280;9738;51.654;14.238;2023-04-19T10:17:57;101084.06;;;10.34;69.19
19210;BME280;9738;51.654;14.238;2023-04-19T10:20:29;101089.59;;;10.21;69.64
19210;BME280;9738;51.654;14.238;2023-04-19T10:22:55;101088.53;;;10.02;69.42
19210;BME280;9738;51.654;14.238;2023-04-19T10:25:27;101082.16;;;9.94;71.52
19210;BME280;9738;51.654;14.238;2023-04-19T10:27:54;101087.50;;;9.94;73.05
19210;BME280;9738;51.654;14.238;2023-04-19T10:30:21;101079.56;;;9.83;72.30
19210;BME280;9738;51.654;14.238;2023-04-19T10:32:54;101078.25;;;9.77;72.48
19210;BME280;9738;51.654;14.238;2023-04-19T10:35:25;101067.44;;;9.79;73.60
19210;BME280;9738;51.654;14.238;2023-04-19T10:40:53;101054.88;;;10.42;71.71
19210;BME280;9738;51.654;14.238;2023-04-19T10:43:22;101063.69;;;10.73;69.82
19210;BME280;9738;51.654;14.238;2023-04-19T10:45:48;101061.78;;;10.94;70.19
19210;BME280;9738;51.654;14.238;2023-04-19T10:51:16;101050.50;;;11.49;68.53
19210;BME280;9738;51.654;14.238;2023-04-19T10:56:15;101037.78;;;11.89;65.47
19210;BME280;9738;51.654;14.238;2023-04-19T11:07:04;101027.09;;;11.70;65.30
19210;BME280;9738;51.654;14.238;2023-04-19T11:09:32;101027.06;;;11.89;62.65
19210;BME280;9738;51.654;14.238;2023-04-19T11:12:05;101025.63;;;12.05;63.43
19210;BME280;9738;51.654;14.238;2023-04-19T11:14:36;101018.53;;;12.23;63.09
19210;BME280;9738;51.654;14.238;2023-04-19T11:22:36;101006.91;;;12.78;59.53
19210;BME280;9738;51.654;14.238;2023-04-19T11:25:06;101002.16;;;12.71;59.40
19210;BME280;9738;51.654;14.238;2023-04-19T11:27:33;100998.34;;;12.47;60.09
19210;BME280;9738;51.654;14.238;2023-04-19T11:30:04;101004.63;;;12.10;61.37
19210;BME280;9738;51.654;14.238;2023-04-19T11:32:30;100995.88;;;11.61;60.44
19210;BME280;9738;51.654;14.238;2023-04-19T11:34:56;100998.44;;;11.53;64.55
19210;BME280;9738;51.654;14.238;2023-04-19T11:37:22;100988.25;;;11.56;61.89
19210;BME280;9738;51.654;14.238;2023-04-19T11:39:48;100983.50;;;11.50;60.95
19210;BME280;9738;51.654;14.238;2023-04-19T11:42:18;100990.72;;;11.40;62.29
19210;BME280;9738;51.654;14.238;2023-04-19T11:44:51;100993.25;;;11.22;60.98
19210;BME280;9738;51.654;14.238;2023-04-19T11:47:18;100984.09;;;11.05;62.34
19210;BME280;9738;51.654;14.238;2023-04-19T11:49:44;100984.69;;;11.09;63.31
19210;BME280;9738;51.654;14.238;2023-04-19T11:52:10;100985.50;;;11.29;64.59
19210;BME280;9738;51.654;14.238;2023-04-19T11:54:37;100979.97;;;11.50;61.20
19210;BME280;9738;51.654;14.238;2023-04-19T11:57:04;100982.66;;;11.50;61.27
19210;BME280;9738;51.654;14.238;2023-04-19T11:59:32;100978.41;;;11.57;61.04
19210;BME280;9738;51.654;14.238;2023-04-19T12:02:08;100978.97;;;11.60;61.58
19210;BME280;9738;51.654;14.238;2023-04-19T12:04:35;100975.88;;;11.55;61.29
19210;BME280;9738;51.654;14.238;2023-04-19T12:07:03;100971.25;;;11.48;62.91
19210;BME280;9738;51.654;14.238;2023-04-19T12:09:34;100972.97;;;11.29;62.27
19210;BME280;9738;51.654;14.238;2023-04-19T12:12:02;100975.38;;;11.13;64.13
19210;BME280;9738;51.654;14.238;2023-04-19T12:14:28;100996.19;;;10.71;63.99
19210;BME280;9738;51.654;14.238;2023-04-19T12:19:36;100999.47;;;10.24;70.42
19210;BME280;9738;51.654;14.238;2023-04-19T12:22:10;101005.41;;;10.07;71.14
19210;BME280;9738;51.654;14.238;2023-04-19T12:24:37;101015.25;;;9.86;72.49
19210;BME280;9738;51.654;14.238;2023-04-19T12:27:03;101010.09;;;9.42;79.09
19210;BME280;9738;51.654;14.238;2023-04-19T12:29:29;101021.66;;;9.11;85.98
19210;BME280;9738;51.654;14.238;2023-04-19T12:31:55;101022.19;;;8.93;92.66
19210;BME280;9738;51.654;14.238;2023-04-19T12:34:21;101026.38;;;8.64;96.97
19210;BME280;9738;51.654;14.238;2023-04-19T12:36:46;101022.44;;;8.47;100.00
19210;BME280;9738;51.654;14.238;2023-04-19T12:39:13;101019.03;;;8.34;100.00
19210;BME280;9738;51.654;14.238;2023-04-19T12:41:38;101020.38;;;8.28;100.00
19210;BME280;9738;51.654;14.238;2023-04-19T12:44:04;101019.03;;;8.23;100.00
19210;BME280;9738;51.654;14.238;2023-04-19T12:46:30;101029.19;;;8.18;100.00
19210;BME280;9738;51.654;14.238;2023-04-19T12:48:56;101019.66;;;8.15;100.00
19210;BME280;9738;51.654;14.238;2023-04-19T12:51:22;101021.69;;;8.00;100.00
19210;BME280;9738;51.654;14.238;2023-04-19T12:53:49;101024.34;;;7.89;100.00
19210;BME280;9738;51.654;14.238;2023-04-19T12:56:16;101025.31;;;7.77;100.00
19210;BME280;9738;51.654;14.238;2023-04-19T12:58:42;101013.69;;;7.67;100.00
19210;BME280;9738;51.654;14.238;2023-04-19T13:01:09;101019.47;;;7.61;100.00
19210;BME280;9738;51.654;14.238;2023-04-19T13:03:35;101015.84;;;7.62;100.00
19210;BME280;9738;51.654;14.238;2023-04-19T13:06:02;101014.50;;;7.56;100.00
19210;BME280;9738;51.654;14.238;2023-04-19T13:08:28;101002.66;;;7.49;100.00
19210;BME280;9738;51.654;14.238;2023-04-19T13:10:54;101015.34;;;7.45;100.00
19210;BME280;9738;51.654;14.238;2023-04-19T13:13:20;101018.56;;;7.38;100.00